sensor_id;sensor_type;location;lat;lon;timestamp;temperature;humidity
37974;DHT22;23796;51.458;7.000;2023-11-21T00:01:02;9.30;99.90
37974;DHT22;23796;51.458;7.000;2023-11-21T00:03:29;9.40;99.90
37974;DHT22;23796;51.458;7.000;2023-11-21T00:05:55;9.40;99.90
37974;DHT22;23796;51.458;7.000;2023-11-21T00:08:20;9.40;99.90
37974;DHT22;23796;51.458;7.000;2023-11-21T00:10:48;9.50;99.90
37974;DHT22;23796;51.458;7.000;2023-11-21T00:13:14;9.50;99.90
37974;DHT22;23796;51.458;7.000;2023-11-21T00:15:40;9.50;99.90
37974;DHT22;23796;51.458;7.000;2023-11-21T00:18:06;9.50;99.90
37974;DHT22;23796;51.458;7.000;2023-11-21T00:20:31;9.50;99.90
37974;DHT22;23796;51.458;7.000;2023-11-21T00:22:57;9.50;99.90
37974;DHT22;23796;51.458;7.000;2023-11-21T00:25:23;9.40;99.90
37974;DHT22;23796;51.458;7.000;2023-11-21T00:27:48;9.40;99.90
37974;DHT22;23796;51.458;7.000;2023-11-21T00:30:16;9.40;99.90
37974;DHT22;23796;51.458;7.000;2023-11-21T00:32:42;9.40;99.90
37974;DHT22;23796;51.458;7.000;2023-11-21T00:35:11;9.20;99.90
37974;DHT22;23796;51.458;7.000;2023-11-21T00:37:36;9.10;99.90
37974;DHT22;23796;51.458;7.000;2023-11-21T00:40:04;9.00;99.90
37974;DHT22;23796;51.458;7.000;2023-11-21T00:42:31;9.00;99.90
37974;DHT22;23796;51.458;7.000;2023-11-21T00:44:59;9.10;99.90
37974;DHT22;23796;51.458;7.000;2023-11-21T00:47:25;9.20;99.90
37974;DHT22;23796;51.458;7.000;2023-11-21T00:49:50;9.20;99.90
37974;DHT22;23796;51.458;7.000;2023-11-21T00:52:16;9.20;99.90
37974;DHT22;23796;51.458;7.000;2023-11-21T00:54:42;9.20;99.90
37974;DHT22;23796;51.458;7.000;2023-11-21T00:57:08;9.20;99.90
37974;DHT22;23796;51.458;7.000;2023-11-21T00:59:34;9.30;99.90
37974;DHT22;23796;51.458;7.000;2023-11-21T01:02:02;9.40;99.90
37974;DHT22;23796;51.458;7.000;2023-11-21T01:04:30;9.50;99.90
37974;DHT22;23796;51.458;7.000;2023-11-21T01:06:57;9.60;99.90
37974;DHT22;23796;51.458;7.000;2023-11-21T01:09:23;9.70;99.90
37974;DHT22;23796;51.458;7.000;2023-11-21T01:11:49;9.70;99.90
37974;DHT22;23796;51.458;7.000;2023-11-21T01:14:15;9.80;99.90
37974;DHT22;23796;51.458;7.000;2023-11-21T01:16:40;9.80;99.90
37974;DHT22;23796;51.458;7.000;2023-11-21T01:19:06;9.80;99.90
37974;DHT22;23796;51.458;7.000;2023-11-21T01:21:32;9.80;99.90
37974;DHT22;23796;51.458;7.000;2023-11-21T01:23:57;9.80;99.90
37974;DHT22;23796;51.458;7.000;2023-11-21T01:26:23;9.80;99.90
37974;DHT22;23796;51.458;7.000;2023-11-21T01:28:48;9.80;99.90
37974;DHT22;23796;51.458;7.000;2023-11-21T01:31:15;9.80;99.90
37974;DHT22;23796;51.458;7.000;2023-11-21T01:33:40;9.80;99.90
37974;DHT22;23796;51.458;7.000;2023-11-21T01:36:06;9.70;99.90
37974;DHT22;23796;51.458;7.000;2023-11-21T01:38:32;9.70;99.90
37974;DHT22;23796;51.458;7.000;2023-11-21T01:40:58;9.70;99.90
37974;DHT22;23796;51.458;7.000;2023-11-21T01:43:29;9.80;99.90
37974;DHT22;23796;51.458;7.000;2023-11-21T01:45:55;9.90;99.90
37974;DHT22;23796;51.458;7.000;2023-11-21T01:48:24;9.90;99.90
37974;DHT22;23796;51.458;7.000;2023-11-21T01:50:51;9.90;99.90
37974;DHT22;23796;51.458;7.000;2023-11-21T01:53:17;9.90;99.90
37974;DHT22;23796;51.458;7.000;2023-11-21T01:55:45;9.70;99.90
37974;DHT22;23796;51.458;7.000;2023-11-21T01:58:11;9.70;99.90
37974;DHT22;23796;51.458;7.000;2023-11-21T02:00:38;9.80;99.90
37974;DHT22;23796;51.458;7.000;2023-11-21T02:03:04;9.80;99.90
37974;DHT22;23796;51.458;7.000;2023-11-21T02:05:29;9.80;99.90
37974;DHT22;23796;51.458;7.000;2023-11-21T02:07:55;9.90;99.90
37974;DHT22;23796;51.458;7.000;2023-11-21T02:10:22;9.90;99.90
37974;DHT22;23796;51.458;7.000;2023-11-21T02:12:51;9.90;99.90
37974;DHT22;23796;51.458;7.000;2023-11-21T02:15:17;9.90;99.90
37974;DHT22;23796;51.458;7.000;2023-11-21T02:17:47;9.90;99.90
37974;DHT22;23796;51.458;7.000;2023-11-21T02:20:17;9.90;99.90
37974;DHT22;23796;51.458;7.000;2023-11-21T02:22:56;9.90;99.90
37974;DHT22;23796;51.458;7.000;2023-11-21T02:25:29;9.90;99.90
37974;DHT22;23796;51.458;7.000;2023-11-21T02:28:00;9.90;99.90
37974;DHT22;23796;51.458;7.000;2023-11-21T02:30:27;9.90;99.90
37974;DHT22;23796;51.458;7.000;2023-11-21T02:32:58;9.90;99.90
37974;DHT22;23796;51.458;7.000;2023-11-21T02:35:27;9.90;99.90
37974;DHT22;23796;51.458;7.000;2023-11-21T02:37:53;9.90;99.90
37974;DHT22;23796;51.458;7.000;2023-11-21T02:40:19;9.90;99.90
37974;DHT22;23796;51.458;7.000;2023-11-21T02:42:47;9.90;99.90
37974;DHT22;23796;51.458;7.000;2023-11-21T02:45:13;9.90;99.90
37974;DHT22;23796;51.458;7.000;2023-11-21T02:47:42;9.90;99.90
37974;DHT22;23796;51.458;7.000;2023-11-21T02:50:08;9.90;99.90
37974;DHT22;23796;51.458;7.000;2023-11-21T02:52:36;9.80;99.90
37974;DHT22;23796;51.458;7.000;2023-11-21T02:55:03;9.90;99.90
37974;DHT22;23796;51.458;7.000;2023-11-21T02:57:28;9.90;99.90
37974;DHT22;23796;51.458;7.000;2023-11-21T02:59:54;9.90;99.90
37974;DHT22;23796;51.458;7.000;2023-11-21T03:02:20;9.90;99.90
37974;DHT22;23796;51.458;7.000;2023-11-21T03:04:46;9.90;99.90
37974;DHT22;23796;51.458;7.000;2023-11-21T03:07:13;9.90;99.90
37974;DHT22;23796;51.458;7.000;2023-11-21T03:09:39;9.90;99.90
37974;DHT22;23796;51.458;7.000;2023-11-21T03:12:05;9.90;99.90
37974;DHT22;23796;51.458;7.000;2023-11-21T03:14:30;9.90;99.90
37974;DHT22;23796;51.458;7.000;2023-11-21T03:16:57;9.90;99.90
37974;DHT22;23796;51.458;7.000;2023-11-21T03:19:22;9.90;99.90
37974;DHT22;23796;51.458;7.000;2023-11-21T03:21:48;9.90;99.90
37974;DHT22;23796;51.458;7.000;2023-11-21T03:24:16;9.80;99.90
37974;DHT22;23796;51.458;7.000;2023-11-21T03:26:45;9.80;99.90
37974;DHT22;23796;51.458;7.000;2023-11-21T03:29:13;9.80;99.90
37974;DHT22;23796;51.458;7.000;2023-11-21T03:31:39;9.80;99.90
37974;DHT22;23796;51.458;7.000;2023-11-21T03:34:05;9.80;99.90
37974;DHT22;23796;51.458;7.000;2023-11-21T03:36:30;9.70;99.90
37974;DHT22;23796;51.458;7.000;2023-11-21T03:38:56;9.70;99.90
37974;DHT22;23796;51.458;7.000;2023-11-21T03:41:21;9.70;99.90
37974;DHT22;23796;51.458;7.000;2023-11-21T03:43:47;9.80;99.90
37974;DHT22;23796;51.458;7.000;2023-11-21T03:46:12;9.80;99.90
37974;DHT22;23796;51.458;7.000;2023-11-21T03:48:38;9.80;99.90
37974;DHT22;23796;51.458;7.000;2023-11-21T03:51:07;9.80;99.90
37974;DHT22;23796;51.458;7.000;2023-11-21T03:53:33;9.80;99.90
37974;DHT22;23796;51.458;7.000;2023-11-21T03:55:58;9.90;99.90
37974;DHT22;23796;51.458;7.000;2023-11-21T03:58:24;9.90;99.90
37974;DHT22;23796;51.458;7.000;2023-11-21T04:00:49;10.00;99.90
37974;DHT22;23796;51.458;7.000;2023-11-21T04:03:15;10.00;99.90
37974;DHT22;23796;51.458;7.000;2023-11-21T04:05:43;10.00;99.90
37974;DHT22;23796;51.458;7.000;2023-11-21T04:08:11;9.90;99.90
37974;DHT22;23796;51.458;7.000;2023-11-21T04:10:36;9.90;99.90
37974;DHT22;23796;51.458;7.000;2023-11-21T04:13:05;9.90;99.90
37974;DHT22;23796;51.458;7.000;2023-11-21T04:15:32;9.90;99.90
37974;DHT22;23796;51.458;7.000;2023-11-21T04:18:00;9.80;99.90
37974;DHT22;23796;51.458;7.000;2023-11-21T04:20:25;9.80;99.90
37974;DHT22;23796;51.458;7.000;2023-11-21T04:22:51;9.80;99.90
37974;DHT22;23796;51.458;7.000;2023-11-21T04:25:17;9.80;99.90
37974;DHT22;23796;51.458;7.000;2023-11-21T04:27:45;9.80;99.90
37974;DHT22;23796;51.458;7.000;2023-11-21T04:30:14;9.70;99.90
37974;DHT22;23796;51.458;7.000;2023-11-21T04:32:40;9.70;99.90
37974;DHT22;23796;51.458;7.000;2023-11-21T04:35:06;9.60;99.90
37974;DHT22;23796;51.458;7.000;2023-11-21T04:37:31;9.60;99.90
37974;DHT22;23796;51.458;7.000;2023-11-21T04:39:57;9.60;99.90
37974;DHT22;23796;51.458;7.000;2023-11-21T04:42:22;9.70;99.90
37974;DHT22;23796;51.458;7.000;2023-11-21T04:44:49;9.70;99.90
37974;DHT22;23796;51.458;7.000;2023-11-21T04:47:17;9.70;99.90
37974;DHT22;23796;51.458;7.000;2023-11-21T04:49:46;9.70;99.90
37974;DHT22;23796;51.458;7.000;2023-11-21T04:52:14;9.70;99.90
37974;DHT22;23796;51.458;7.000;2023-11-21T04:54:40;9.70;99.90
37974;DHT22;23796;51.458;7.000;2023-11-21T04:57:08;9.70;99.90
37974;DHT22;23796;51.458;7.000;2023-11-21T04:59:36;9.60;99.90
37974;DHT22;23796;51.458;7.000;2023-11-21T05:02:02;9.60;99.90
37974;DHT22;23796;51.458;7.000;2023-11-21T05:04:28;9.60;99.90
37974;DHT22;23796;51.458;7.000;2023-11-21T05:06:53;9.60;99.90
37974;DHT22;23796;51.458;7.000;2023-11-21T05:09:22;9.70;99.90
37974;DHT22;23796;51.458;7.000;2023-11-21T05:11:47;9.70;99.90
37974;DHT22;23796;51.458;7.000;2023-11-21T05:14:13;9.70;99.90
37974;DHT22;23796;51.458;7.000;2023-11-21T05:16:41;9.80;99.90
37974;DHT22;23796;51.458;7.000;2023-11-21T05:19:07;9.80;99.90
37974;DHT22;23796;51.458;7.000;2023-11-21T05:21:34;9.80;99.90
37974;DHT22;23796;51.458;7.000;2023-11-21T05:24:01;9.80;99.90
37974;DHT22;23796;51.458;7.000;2023-11-21T05:26:27;9.80;99.90
37974;DHT22;23796;51.458;7.000;2023-11-21T05:28:53;9.80;99.90
37974;DHT22;23796;51.458;7.000;2023-11-21T05:31:18;9.80;99.90
37974;DHT22;23796;51.458;7.000;2023-11-21T05:33:47;9.80;99.90
37974;DHT22;23796;51.458;7.000;2023-11-21T05:36:12;9.70;99.90
37974;DHT22;23796;51.458;7.000;2023-11-21T05:38:38;9.70;99.90
37974;DHT22;23796;51.458;7.000;2023-11-21T05:41:04;9.70;99.90
37974;DHT22;23796;51.458;7.000;2023-11-21T05:43:30;9.70;99.90
37974;DHT22;23796;51.458;7.000;2023-11-21T05:45:57;9.80;99.90
37974;DHT22;23796;51.458;7.000;2023-11-21T05:48:23;9.80;99.90
37974;DHT22;23796;51.458;7.000;2023-11-21T05:50:51;9.80;99.90
37974;DHT22;23796;51.458;7.000;2023-11-21T05:53:16;9.80;99.90
37974;DHT22;23796;51.458;7.000;2023-11-21T05:55:42;9.80;99.90
37974;DHT22;23796;51.458;7.000;2023-11-21T05:58:08;9.80;99.90
37974;DHT22;23796;51.458;7.000;2023-11-21T06:00:33;9.70;99.90
37974;DHT22;23796;51.458;7.000;2023-11-21T06:02:59;9.70;99.90
37974;DHT22;23796;51.458;7.000;2023-11-21T06:05:26;9.70;99.90
37974;DHT22;23796;51.458;7.000;2023-11-21T06:07:52;9.60;99.90
37974;DHT22;23796;51.458;7.000;2023-11-21T06:10:20;9.60;99.90
37974;DHT22;23796;51.458;7.000;2023-11-21T06:12:46;9.60;99.90
37974;DHT22;23796;51.458;7.000;2023-11-21T06:15:12;9.60;99.90
37974;DHT22;23796;51.458;7.000;2023-11-21T06:17:43;9.60;99.90
37974;DHT22;23796;51.458;7.000;2023-11-21T06:20:15;9.60;99.90
37974;DHT22;23796;51.458;7.000;2023-11-21T06:22:45;9.70;99.90
37974;DHT22;23796;51.458;7.000;2023-11-21T06:25:12;9.60;99.90
37974;DHT22;23796;51.458;7.000;2023-11-21T06:27:43;9.70;99.90
37974;DHT22;23796;51.458;7.000;2023-11-21T06:30:15;9.70;99.90
37974;DHT22;23796;51.458;7.000;2023-11-21T06:32:43;9.70;99.90
37974;DHT22;23796;51.458;7.000;2023-11-21T06:35:11;9.70;99.90
37974;DHT22;23796;51.458;7.000;2023-11-21T06:37:38;9.70;99.90
37974;DHT22;23796;51.458;7.000;2023-11-21T06:40:04;9.70;99.90
37974;DHT22;23796;51.458;7.000;2023-11-21T06:42:30;9.70;99.90
37974;DHT22;23796;51.458;7.000;2023-11-21T06:44:56;9.70;99.90
37974;DHT22;23796;51.458;7.000;2023-11-21T06:47:23;9.70;99.90
37974;DHT22;23796;51.458;7.000;2023-11-21T06:49:53;9.70;99.90
37974;DHT22;23796;51.458;7.000;2023-11-21T06:52:21;9.70;99.90
37974;DHT22;23796;51.458;7.000;2023-11-21T06:54:47;9.80;99.90
37974;DHT22;23796;51.458;7.000;2023-11-21T06:57:15;9.80;99.90
37974;DHT22;23796;51.458;7.000;2023-11-21T06:59:41;9.80;99.90
37974;DHT22;23796;51.458;7.000;2023-11-21T07:02:07;9.70;99.90
37974;DHT22;23796;51.458;7.000;2023-11-21T07:04:33;9.70;99.90
37974;DHT22;23796;51.458;7.000;2023-11-21T07:06:59;9.70;99.90
37974;DHT22;23796;51.458;7.000;2023-11-21T07:09:27;9.80;99.90
37974;DHT22;23796;51.458;7.000;2023-11-21T07:11:54;9.80;99.90
37974;DHT22;23796;51.458;7.000;2023-11-21T07:14:20;9.80;99.90
37974;DHT22;23796;51.458;7.000;2023-11-21T07:16:47;9.90;99.90
37974;DHT22;23796;51.458;7.000;2023-11-21T07:19:13;9.90;99.90
37974;DHT22;23796;51.458;7.000;2023-11-21T07:21:39;9.80;99.90
37974;DHT22;23796;51.458;7.000;2023-11-21T07:24:06;9.50;99.90
37974;DHT22;23796;51.458;7.000;2023-11-21T07:26:32;9.40;99.90
37974;DHT22;23796;51.458;7.000;2023-11-21T07:29:04;9.30;99.90
37974;DHT22;23796;51.458;7.000;2023-11-21T07:31:30;9.40;99.90
37974;DHT22;23796;51.458;7.000;2023-11-21T07:33:59;9.50;99.90
37974;DHT22;23796;51.458;7.000;2023-11-21T07:36:25;9.60;99.90
37974;DHT22;23796;51.458;7.000;2023-11-21T07:38:51;9.70;99.90
37974;DHT22;23796;51.458;7.000;2023-11-21T07:41:17;9.70;99.90
37974;DHT22;23796;51.458;7.000;2023-11-21T07:43:44;9.80;99.90
37974;DHT22;23796;51.458;7.000;2023-11-21T07:46:13;9.80;99.90
37974;DHT22;23796;51.458;7.000;2023-11-21T07:48:39;9.80;99.90
37974;DHT22;23796;51.458;7.000;2023-11-21T07:51:08;9.90;99.90
37974;DHT22;23796;51.458;7.000;2023-11-21T07:53:33;10.00;99.90
37974;DHT22;23796;51.458;7.000;2023-11-21T07:56:04;10.00;99.90
37974;DHT22;23796;51.458;7.000;2023-11-21T07:58:33;10.10;99.90
37974;DHT22;23796;51.458;7.000;2023-11-21T08:01:02;9.80;99.90
37974;DHT22;23796;51.458;7.000;2023-11-21T08:03:28;9.80;99.90
37974;DHT22;23796;51.458;7.000;2023-11-21T08:05:55;9.90;99.90
37974;DHT22;23796;51.458;7.000;2023-11-21T08:08:21;10.00;99.90
37974;DHT22;23796;51.458;7.000;2023-11-21T08:10:47;10.20;99.90
37974;DHT22;23796;51.458;7.000;2023-11-21T08:13:15;10.10;99.90
37974;DHT22;23796;51.458;7.000;2023-11-21T08:15:42;9.90;99.90
37974;DHT22;23796;51.458;7.000;2023-11-21T08:18:11;9.80;99.90
37974;DHT22;23796;51.458;7.000;2023-11-21T08:20:38;9.60;99.90
37974;DHT22;23796;51.458;7.000;2023-11-21T08:23:05;9.60;99.90
37974;DHT22;23796;51.458;7.000;2023-11-21T08:25:34;9.70;99.90
37974;DHT22;23796;51.458;7.000;2023-11-21T08:28:02;9.50;99.90
37974;DHT22;23796;51.458;7.000;2023-11-21T08:30:28;9.30;99.90
37974;DHT22;23796;51.458;7.000;2023-11-21T08:32:56;9.20;99.90
37974;DHT22;23796;51.458;7.000;2023-11-21T08:35:24;9.10;99.90
37974;DHT22;23796;51.458;7.000;2023-11-21T08:37:53;9.10;99.90
37974;DHT22;23796;51.458;7.000;2023-11-21T08:40:19;9.00;99.90
37974;DHT22;23796;51.458;7.000;2023-11-21T08:42:50;9.20;99.90
37974;DHT22;23796;51.458;7.000;2023-11-21T08:45:17;9.30;99.90
37974;DHT22;23796;51.458;7.000;2023-11-21T08:47:43;9.40;99.90
37974;DHT22;23796;51.458;7.000;2023-11-21T08:50:12;9.40;99.90
37974;DHT22;23796;51.458;7.000;2023-11-21T08:52:41;9.40;99.90
37974;DHT22;23796;51.458;7.000;2023-11-21T08:55:08;9.40;99.90
37974;DHT22;23796;51.458;7.000;2023-11-21T08:57:40;9.50;99.90
37974;DHT22;23796;51.458;7.000;2023-11-21T09:00:07;9.60;99.90
37974;DHT22;23796;51.458;7.000;2023-11-21T09:02:39;9.70;99.90
37974;DHT22;23796;51.458;7.000;2023-11-21T09:05:08;9.90;99.90
37974;DHT22;23796;51.458;7.000;2023-11-21T09:07:34;10.10;99.90
37974;DHT22;23796;51.458;7.000;2023-11-21T09:10:01;9.90;99.90
37974;DHT22;23796;51.458;7.000;2023-11-21T09:12:26;9.90;99.90
37974;DHT22;23796;51.458;7.000;2023-11-21T09:14:52;9.80;99.90
37974;DHT22;23796;51.458;7.000;2023-11-21T09:17:18;9.70;99.90
37974;DHT22;23796;51.458;7.000;2023-11-21T09:19:44;9.70;99.90
37974;DHT22;23796;51.458;7.000;2023-11-21T09:22:17;9.70;99.90
37974;DHT22;23796;51.458;7.000;2023-11-21T09:24:42;9.80;99.90
37974;DHT22;23796;51.458;7.000;2023-11-21T09:27:08;9.90;99.90
37974;DHT22;23796;51.458;7.000;2023-11-21T09:29:35;10.00;99.90
37974;DHT22;23796;51.458;7.000;2023-11-21T09:32:00;9.90;99.90
37974;DHT22;23796;51.458;7.000;2023-11-21T09:34:26;9.90;99.90
37974;DHT22;23796;51.458;7.000;2023-11-21T09:36:52;9.80;99.90
37974;DHT22;23796;51.458;7.000;2023-11-21T09:39:18;9.70;99.90
37974;DHT22;23796;51.458;7.000;2023-11-21T09:42:12;9.80;99.90
37974;DHT22;23796;51.458;7.000;2023-11-21T09:47:07;9.70;99.90
37974;DHT22;23796;51.458;7.000;2023-11-21T09:49:37;9.70;99.90
37974;DHT22;23796;51.458;7.000;2023-11-21T09:52:04;9.70;99.90
37974;DHT22;23796;51.458;7.000;2023-11-21T09:54:34;9.70;99.90
37974;DHT22;23796;51.458;7.000;2023-11-21T09:57:00;9.80;99.90
37974;DHT22;23796;51.458;7.000;2023-11-21T09:59:30;9.80;99.90
37974;DHT22;23796;51.458;7.000;2023-11-21T10:01:59;9.90;99.90
37974;DHT22;23796;51.458;7.000;2023-11-21T10:04:27;9.90;99.90
37974;DHT22;23796;51.458;7.000;2023-11-21T10:06:54;9.90;99.90
37974;DHT22;23796;51.458;7.000;2023-11-21T10:09:21;10.20;99.90
37974;DHT22;23796;51.458;7.000;2023-11-21T10:11:49;10.20;99.90
37974;DHT22;23796;51.458;7.000;2023-11-21T10:14:18;10.30;99.90
37974;DHT22;23796;51.458;7.000;2023-11-21T10:16:46;10.40;99.90
37974;DHT22;23796;51.458;7.000;2023-11-21T10:19:15;10.70;99.90
37974;DHT22;23796;51.458;7.000;2023-11-21T10:21:42;10.50;99.90
37974;DHT22;23796;51.458;7.000;2023-11-21T10:24:08;10.70;99.90
37974;DHT22;23796;51.458;7.000;2023-11-21T10:26:34;11.50;99.90
37974;DHT22;23796;51.458;7.000;2023-11-21T10:29:03;11.60;99.90
37974;DHT22;23796;51.458;7.000;2023-11-21T10:31:32;11.20;99.90
37974;DHT22;23796;51.458;7.000;2023-11-21T10:36:38;10.70;99.90
37974;DHT22;23796;51.458;7.000;2023-11-21T10:39:04;10.70;99.90
37974;DHT22;23796;51.458;7.000;2023-11-21T10:41:30;10.80;99.90
37974;DHT22;23796;51.458;7.000;2023-11-21T10:43:55;10.80;99.90
37974;DHT22;23796;51.458;7.000;2023-11-21T10:46:24;10.60;99.90
37974;DHT22;23796;51.458;7.000;2023-11-21T10:48:56;10.70;99.90
37974;DHT22;23796;51.458;7.000;2023-11-21T10:51:22;10.70;99.90
37974;DHT22;23796;51.458;7.000;2023-11-21T10:53:51;10.70;99.90
37974;DHT22;23796;51.458;7.000;2023-11-21T10:56:18;10.60;99.90
37974;DHT22;23796;51.458;7.000;2023-11-21T10:58:50;10.70;99.90
37974;DHT22;23796;51.458;7.000;2023-11-21T11:01:18;10.70;99.90
37974;DHT22;23796;51.458;7.000;2023-11-21T11:03:46;10.60;99.90
37974;DHT22;23796;51.458;7.000;2023-11-21T11:06:13;10.70;99.90
37974;DHT22;23796;51.458;7.000;2023-11-21T11:08:40;10.60;99.90
37974;DHT22;23796;51.458;7.000;2023-11-21T11:11:07;10.60;99.90
37974;DHT22;23796;51.458;7.000;2023-11-21T11:13:37;10.60;99.90
37974;DHT22;23796;51.458;7.000;2023-11-21T11:16:03;10.70;99.90
37974;DHT22;23796;51.458;7.000;2023-11-21T11:18:33;10.70;99.90
37974;DHT22;23796;51.458;7.000;2023-11-21T11:21:15;10.80;99.90
37974;DHT22;23796;51.458;7.000;2023-11-21T11:32:43;10.90;99.90
37974;DHT22;23796;51.458;7.000;2023-11-21T11:35:33;10.80;99.90
37974;DHT22;23796;51.458;7.000;2023-11-21T11:37:59;10.90;99.90
37974;DHT22;23796;51.458;7.000;2023-11-21T11:40:44;10.80;99.90
37974;DHT22;23796;51.458;7.000;2023-11-21T11:43:10;10.90;99.90
37974;DHT22;23796;51.458;7.000;2023-11-21T11:45:37;11.10;99.90
37974;DHT22;23796;51.458;7.000;2023-11-21T11:48:17;11.00;99.90
37974;DHT22;23796;51.458;7.000;2023-11-21T11:51:04;10.90;99.90
37974;DHT22;23796;51.458;7.000;2023-11-21T11:53:38;10.90;99.90
37974;DHT22;23796;51.458;7.000;2023-11-21T11:58:57;11.10;99.90
37974;DHT22;23796;51.458;7.000;2023-11-21T12:01:24;11.10;99.90
37974;DHT22;23796;51.458;7.000;2023-11-21T12:06:51;10.90;99.90
37974;DHT22;23796;51.458;7.000;2023-11-21T12:09:23;10.90;99.90
37974;DHT22;23796;51.458;7.000;2023-11-21T12:11:52;10.90;99.90
37974;DHT22;23796;51.458;7.000;2023-11-21T12:14:18;10.90;99.90
37974;DHT22;23796;51.458;7.000;2023-11-21T12:16:43;10.80;99.90
37974;DHT22;23796;51.458;7.000;2023-11-21T12:19:12;10.80;99.90
37974;DHT22;23796;51.458;7.000;2023-11-21T12:21:38;10.80;99.90
37974;DHT22;23796;51.458;7.000;2023-11-21T12:24:06;10.80;99.90
37974;DHT22;23796;51.458;7.000;2023-11-21T12:26:36;10.70;99.90
37974;DHT22;23796;51.458;7.000;2023-11-21T12:29:02;10.80;99.90
37974;DHT22;23796;51.458;7.000;2023-11-21T12:31:33;10.90;99.90
37974;DHT22;23796;51.458;7.000;2023-11-21T12:33:58;10.50;99.90
37974;DHT22;23796;51.458;7.000;2023-11-21T12:36:24;10.60;99.90
37974;DHT22;23796;51.458;7.000;2023-11-21T12:38:50;10.70;99.90
37974;DHT22;23796;51.458;7.000;2023-11-21T12:41:16;10.50;99.90
37974;DHT22;23796;51.458;7.000;2023-11-21T12:43:47;10.50;99.90
37974;DHT22;23796;51.458;7.000;2023-11-21T12:46:13;10.30;99.90
37974;DHT22;23796;51.458;7.000;2023-11-21T12:48:43;10.40;99.90
37974;DHT22;23796;51.458;7.000;2023-11-21T12:51:10;10.40;99.90
37974;DHT22;23796;51.458;7.000;2023-11-21T12:53:45;10.60;99.90
37974;DHT22;23796;51.458;7.000;2023-11-21T12:56:12;10.50;99.90
37974;DHT22;23796;51.458;7.000;2023-11-21T12:58:39;10.70;99.90
37974;DHT22;23796;51.458;7.000;2023-11-21T13:01:06;10.50;99.90
37974;DHT22;23796;51.458;7.000;2023-11-21T13:03:38;10.40;99.90
37974;DHT22;23796;51.458;7.000;2023-11-21T13:06:04;10.30;99.90
37974;DHT22;23796;51.458;7.000;2023-11-21T13:08:31;10.30;99.90
37974;DHT22;23796;51.458;7.000;2023-11-21T13:10:58;10.00;99.90
37974;DHT22;23796;51.458;7.000;2023-11-21T13:13:25;9.90;99.90
37974;DHT22;23796;51.458;7.000;2023-11-21T13:16:02;9.90;99.90
37974;DHT22;23796;51.458;7.000;2023-11-21T13:18:32;9.90;99.90
37974;DHT22;23796;51.458;7.000;2023-11-21T13:21:08;10.00;99.90
37974;DHT22;23796;51.458;7.000;2023-11-21T13:23:40;10.10;99.90
37974;DHT22;23796;51.458;7.000;2023-11-21T13:26:07;10.10;99.90
37974;DHT22;23796;51.458;7.000;2023-11-21T13:28:37;10.20;99.90
37974;DHT22;23796;51.458;7.000;2023-11-21T13:31:04;10.10;99.90
37974;DHT22;23796;51.458;7.000;2023-11-21T13:33:35;10.20;99.90
37974;DHT22;23796;51.458;7.000;2023-11-21T13:36:06;10.40;99.90
37974;DHT22;23796;51.458;7.000;2023-11-21T13:38:35;10.40;99.90
37974;DHT22;23796;51.458;7.000;2023-11-21T13:41:02;10.60;99.90
37974;DHT22;23796;51.458;7.000;2023-11-21T13:43:33;10.50;99.90
37974;DHT22;23796;51.458;7.000;2023-11-21T13:45:59;10.60;99.90
37974;DHT22;23796;51.458;7.000;2023-11-21T13:48:33;10.50;99.90
37974;DHT22;23796;51.458;7.000;2023-11-21T13:51:14;10.50;99.90
37974;DHT22;23796;51.458;7.000;2023-11-21T13:53:46;10.60;99.90
37974;DHT22;23796;51.458;7.000;2023-11-21T13:56:15;10.60;99.90
37974;DHT22;23796;51.458;7.000;2023-11-21T13:58:49;10.50;99.90
37974;DHT22;23796;51.458;7.000;2023-11-21T14:01:18;10.50;99.90
37974;DHT22;23796;51.458;7.000;2023-11-21T14:04:03;10.50;99.90
37974;DHT22;23796;51.458;7.000;2023-11-21T14:06:51;10.40;99.90
37974;DHT22;23796;51.458;7.000;2023-11-21T14:09:21;10.50;99.90
37974;DHT22;23796;51.458;7.000;2023-11-21T14:11:55;10.70;99.90
37974;DHT22;23796;51.458;7.000;2023-11-21T14:14:24;10.80;99.90
37974;DHT22;23796;51.458;7.000;2023-11-21T14:16:51;10.70;99.90
37974;DHT22;23796;51.458;7.000;2023-11-21T14:19:18;10.60;99.90
37974;DHT22;23796;51.458;7.000;2023-11-21T14:21:44;10.50;99.90
37974;DHT22;23796;51.458;7.000;2023-11-21T14:24:13;10.50;99.90
37974;DHT22;23796;51.458;7.000;2023-11-21T14:26:42;10.60;99.90
37974;DHT22;23796;51.458;7.000;2023-11-21T14:29:11;10.70;99.90
37974;DHT22;23796;51.458;7.000;2023-11-21T14:31:40;10.80;99.90
37974;DHT22;23796;51.458;7.000;2023-11-21T14:34:07;10.70;99.90
37974;DHT22;23796;51.458;7.000;2023-11-21T14:36:33;10.70;99.90
37974;DHT22;23796;51.458;7.000;2023-11-21T14:38:59;10.30;99.90
37974;DHT22;23796;51.458;7.000;2023-11-21T14:41:24;10.20;99.90
37974;DHT22;23796;51.458;7.000;2023-11-21T14:43:51;10.30;99.90
37974;DHT22;23796;51.458;7.000;2023-11-21T14:46:16;10.40;99.90
37974;DHT22;23796;51.458;7.000;2023-11-21T14:48:47;10.30;99.90
37974;DHT22;23796;51.458;7.000;2023-11-21T14:51:24;10.40;99.90
37974;DHT22;23796;51.458;7.000;2023-11-21T14:54:18;10.50;99.90
37974;DHT22;23796;51.458;7.000;2023-11-21T14:57:04;10.60;99.90
37974;DHT22;23796;51.458;7.000;2023-11-21T14:59:32;10.60;99.90
37974;DHT22;23796;51.458;7.000;2023-11-21T15:01:58;10.40;99.90
37974;DHT22;23796;51.458;7.000;2023-11-21T15:04:25;10.50;99.90
37974;DHT22;23796;51.458;7.000;2023-11-21T15:07:02;10.30;99.90
37974;DHT22;23796;51.458;7.000;2023-11-21T15:09:28;10.20;99.90
37974;DHT22;23796;51.458;7.000;2023-11-21T15:11:57;10.30;99.90
37974;DHT22;23796;51.458;7.000;2023-11-21T15:14:29;10.40;99.90
37974;DHT22;23796;51.458;7.000;2023-11-21T15:16:58;10.40;99.90
37974;DHT22;23796;51.458;7.000;2023-11-21T15:19:26;10.50;99.90
37974;DHT22;23796;51.458;7.000;2023-11-21T15:21:53;10.50;99.90
37974;DHT22;23796;51.458;7.000;2023-11-21T15:24:21;10.50;99.90
37974;DHT22;23796;51.458;7.000;2023-11-21T15:26:50;10.50;99.90
37974;DHT22;23796;51.458;7.000;2023-11-21T15:29:16;10.40;99.90
37974;DHT22;23796;51.458;7.000;2023-11-21T15:31:44;10.40;99.90
37974;DHT22;23796;51.458;7.000;2023-11-21T15:34:14;10.40;99.90
37974;DHT22;23796;51.458;7.000;2023-11-21T15:36:40;10.40;99.90
37974;DHT22;23796;51.458;7.000;2023-11-21T15:39:08;10.40;99.90
37974;DHT22;23796;51.458;7.000;2023-11-21T15:41:39;10.40;99.90
37974;DHT22;23796;51.458;7.000;2023-11-21T15:44:06;10.20;99.90
37974;DHT22;23796;51.458;7.000;2023-11-21T15:46:35;10.00;99.90
37974;DHT22;23796;51.458;7.000;2023-11-21T15:49:02;10.10;99.90
37974;DHT22;23796;51.458;7.000;2023-11-21T15:51:38;10.00;99.90
37974;DHT22;23796;51.458;7.000;2023-11-21T15:54:06;10.00;99.90
37974;DHT22;23796;51.458;7.000;2023-11-21T15:56:33;9.90;99.90
37974;DHT22;23796;51.458;7.000;2023-11-21T15:59:00;9.80;99.90
37974;DHT22;23796;51.458;7.000;2023-11-21T16:01:26;9.80;99.90
37974;DHT22;23796;51.458;7.000;2023-11-21T16:03:52;9.80;99.90